Time;durP1;ratioP1;P1;durP2;ratioP2;P2;SDS_P1;SDS_P2;PMS_P1;PMS_P2;Temp;Humidity;BMP_temperature;BMP_pressure;BME280_temperature;BME280_humidity;BME280_pressure;Samples;Min_cycle;Max_cycle;Signal;HPM_P1;HPM_P2
2021/06/07 00:00:04;;;;;;;28.48;24.63;;;;;;;;;;2039048;29;20171;-65
2021/06/07 00:01:14;;;;;;;28.60;22.52;;;;;;;;;;2039396;29;20206;-63
2021/06/07 00:02:16;;;;;;;35.67;25.25;;;;;;;;;;2039972;29;20223;-63
2021/06/07 00:03:16;;;;;;;26.25;23.20;;;;;;;;;;2036981;29;20180;-62
2021/06/07 00:04:16;;;;;;;28.10;22.92;;;;;;;;;;2040777;29;20552;-64
2021/06/07 00:05:17;;;;;;;28.58;23.88;;;;;;;;;;2040152;29;20164;-64
2021/06/07 00:06:17;;;;;;;26.38;23.45;;;;;;;;;;2040378;29;20175;-64
2021/06/07 00:07:18;;;;;;;28.65;23.55;;;;;;;;;;2048167;29;20199;-63
2021/06/07 00:08:18;;;;;;;26.08;23.00;;;;;;;;;;2035193;29;20173;-63
2021/06/07 00:09:19;;;;;;;25.70;22.80;;;;;;;;;;2040760;29;20178;-61
2021/06/07 00:10:20;;;;;;;28.92;23.13;;;;;;;;;;2040402;29;20179;-64
2021/06/07 00:11:21;;;;;;;30.20;24.23;;;;;;;;;;2040402;29;20246;-62
2021/06/07 00:12:21;;;;;;;28.67;23.55;;;;;;;;;;2040252;29;20191;-64
2021/06/07 00:13:24;;;;;;;27.90;23.70;;;;;;;;;;2044869;29;20184;-62
2021/06/07 00:14:26;;;;;;;26.58;22.63;;;;;;;;;;2040121;29;20267;-59
2021/06/07 00:15:27;;;;;;;29.25;23.63;;;;;;;;;;2047504;29;20175;-63
2021/06/07 00:16:29;;;;;;;24.05;21.58;;;;;;;;;;2040187;29;20179;-64
2021/06/07 00:17:29;;;;;;;28.42;23.02;;;;;;;;;;2040941;29;20684;-64
2021/06/07 00:18:30;;;;;;;30.08;24.15;;;;;;;;;;2040409;29;20180;-61
2021/06/07 00:19:32;;;;;;;30.35;24.48;;;;;;;;;;2039742;29;20186;-63
2021/06/07 00:20:37;;;;;;;24.35;21.75;;;;;;;;;;2039906;29;20176;-64
2021/06/07 00:21:38;;;;;;;28.20;22.85;;;;;;;;;;2041289;29;20187;-63
2021/06/07 00:22:38;;;;;;;28.52;23.25;;;;;;;;;;2040550;29;20218;-61
2021/06/07 00:23:39;;;;;;;30.08;24.20;;;;;;;;;;2039619;29;20931;-61
2021/06/07 00:24:40;;;;;;;28.33;24.00;;;;;;;;;;2041246;29;20571;-65
2021/06/07 00:25:40;;;;;;;26.75;23.55;;;;;;;;;;2040358;29;20168;-64
2021/06/07 00:26:40;;;;;;;28.58;24.15;;;;;;;;;;2040710;29;20168;-62
2021/06/07 00:27:41;;;;;;;26.85;23.75;;;;;;;;;;2040293;29;20191;-65
2021/06/07 00:28:41;;;;;;;28.60;24.38;;;;;;;;;;2040374;29;20186;-61
2021/06/07 00:29:41;;;;;;;28.98;24.52;;;;;;;;;;2039945;29;20616;-64
2021/06/07 00:30:41;;;;;;;26.90;23.52;;;;;;;;;;2039765;29;20179;-64
2021/06/07 00:31:42;;;;;;;27.48;24.17;;;;;;;;;;2037741;29;20206;-64
2021/06/07 00:32:42;;;;;;;33.30;25.13;;;;;;;;;;2039928;29;20176;-65
2021/06/07 00:33:43;;;;;;;29.08;24.40;;;;;;;;;;2039036;29;21071;-64
2021/06/07 00:34:43;;;;;;;29.05;25.23;;;;;;;;;;2040128;29;20186;-62
2021/06/07 00:35:43;;;;;;;29.70;25.98;;;;;;;;;;2040430;29;20199;-64
2021/06/07 00:36:43;;;;;;;30.05;25.13;;;;;;;;;;2040265;29;20190;-65
2021/06/07 00:37:44;;;;;;;27.30;24.13;;;;;;;;;;2040905;29;20557;-63
2021/06/07 00:38:44;;;;;;;29.77;25.10;;;;;;;;;;2039867;29;20214;-64
2021/06/07 00:39:45;;;;;;;30.27;24.50;;;;;;;;;;2036228;29;20164;-65
2021/06/07 00:40:45;;;;;;;32.40;26.05;;;;;;;;;;2030821;29;20211;-63
2021/06/07 00:41:47;;;;;;;29.58;26.13;;;;;;;;;;2031535;29;20196;-62
2021/06/07 00:42:47;;;;;;;31.60;25.67;;;;;;;;;;2040181;29;20619;-65
2021/06/07 00:43:51;;;;;;;33.40;25.55;;;;;;;;;;2040307;29;20199;-63
2021/06/07 00:44:51;;;;;;;30.08;25.02;;;;;;;;;;2039920;29;20159;-64
2021/06/07 00:45:51;;;;;;;31.58;26.10;;;;;;;;;;2047497;29;20198;-65
2021/06/07 00:46:52;;;;;;;30.60;26.60;;;;;;;;;;2048495;29;20201;-62
2021/06/07 00:47:52;;;;;;;32.35;25.45;;;;;;;;;;2040448;29;20218;-65
2021/06/07 00:48:53;;;;;;;35.25;27.42;;;;;;;;;;2041081;29;20175;-64
2021/06/07 00:49:53;;;;;;;31.27;26.60;;;;;;;;;;2040424;29;20187;-63
2021/06/07 00:50:56;;;;;;;33.13;27.52;;;;;;;;;;2041132;29;20191;-64
2021/06/07 00:51:56;;;;;;;32.75;26.10;;;;;;;;;;2040454;29;20195;-64
2021/06/07 00:53:01;;;;;;;32.15;26.73;;;;;;;;;;2040196;29;20176;-64
2021/06/07 00:54:01;;;;;;;33.35;27.05;;;;;;;;;;2035295;29;20179;-62
2021/06/07 00:55:03;;;;;;;32.28;25.13;;;;;;;;;;2032578;29;20179;-64
2021/06/07 00:56:05;;;;;;;33.38;27.65;;;;;;;;;;2032017;29;20188;-64
2021/06/07 00:57:05;;;;;;;34.60;27.70;;;;;;;;;;2032519;29;20179;-64
2021/06/07 00:58:06;;;;;;;35.40;28.00;;;;;;;;;;2039674;29;20187;-63
2021/06/07 00:59:07;;;;;;;39.08;27.80;;;;;;;;;;2040913;29;20239;-62
2021/06/07 01:00:07;;;;;;;38.30;29.25;;;;;;;;;;2040255;29;20211;-64
2021/06/07 01:01:09;;;;;;;33.67;27.05;;;;;;;;;;2039503;29;20295;-64
2021/06/07 01:02:09;;;;;;;38.00;28.58;;;;;;;;;;2040464;29;20215;-65
2021/06/07 01:03:10;;;;;;;39.47;28.35;;;;;;;;;;2040328;29;20167;-63
2021/06/07 01:04:11;;;;;;;32.30;27.42;;;;;;;;;;2039762;29;20247;-64
2021/06/07 01:05:11;;;;;;;35.53;26.88;;;;;;;;;;2039973;29;20299;-64
2021/06/07 01:06:12;;;;;;;35.53;27.30;;;;;;;;;;2039983;29;20195;-66
2021/06/07 01:07:12;;;;;;;35.88;28.10;;;;;;;;;;2040467;29;20319;-66
2021/06/07 01:08:16;;;;;;;41.17;29.52;;;;;;;;;;2040741;29;20176;-64
2021/06/07 01:09:17;;;;;;;37.97;28.58;;;;;;;;;;2039434;29;20175;-63
2021/06/07 01:10:17;;;;;;;36.67;27.38;;;;;;;;;;2040179;29;20553;-65
2021/06/07 01:11:17;;;;;;;36.47;27.27;;;;;;;;;;2047715;29;20171;-64
2021/06/07 01:12:18;;;;;;;35.20;26.55;;;;;;;;;;2040384;29;20199;-64
2021/06/07 01:13:18;;;;;;;40.20;28.65;;;;;;;;;;2039005;29;20164;-63
2021/06/07 01:14:19;;;;;;;31.38;25.40;;;;;;;;;;2040192;29;20279;-65
2021/06/07 01:15:19;;;;;;;32.60;27.30;;;;;;;;;;2039967;29;20192;-65
2021/06/07 01:16:20;;;;;;;37.45;27.52;;;;;;;;;;2040428;29;20215;-65
2021/06/07 01:17:20;;;;;;;35.03;27.52;;;;;;;;;;2039448;29;20187;-64
2021/06/07 01:18:21;;;;;;;33.60;27.65;;;;;;;;;;2034409;29;20238;-65
2021/06/07 01:19:22;;;;;;;32.22;27.15;;;;;;;;;;2034967;29;20172;-65
2021/06/07 01:20:22;;;;;;;33.85;25.95;;;;;;;;;;2038842;29;20195;-62
2021/06/07 01:21:24;;;;;;;32.22;26.30;;;;;;;;;;2040731;29;20183;-64
2021/06/07 01:22:24;;;;;;;33.53;26.92;;;;;;;;;;2031863;29;20200;-63
2021/06/07 01:23:24;;;;;;;36.95;25.27;;;;;;;;;;2027338;29;20775;-61
2021/06/07 01:24:25;;;;;;;38.70;26.25;;;;;;;;;;2048204;29;20646;-65
2021/06/07 01:25:27;;;;;;;31.77;25.27;;;;;;;;;;2039096;29;20192;-66
2021/06/07 01:26:28;;;;;;;29.60;25.17;;;;;;;;;;2032475;29;20179;-64
2021/06/07 01:27:28;;;;;;;29.83;24.23;;;;;;;;;;2040389;29;20179;-64
2021/06/07 01:28:29;;;;;;;27.65;24.58;;;;;;;;;;2040956;29;20222;-65
2021/06/07 01:29:29;;;;;;;33.03;26.00;;;;;;;;;;2040712;29;20183;-62
2021/06/07 01:30:31;;;;;;;29.63;24.45;;;;;;;;;;2040810;29;20581;-66
2021/06/07 01:31:31;;;;;;;38.80;25.73;;;;;;;;;;2040917;29;20690;-65
2021/06/07 01:32:32;;;;;;;30.25;24.88;;;;;;;;;;2040985;29;20183;-64
2021/06/07 01:33:33;;;;;;;30.98;24.45;;;;;;;;;;2040326;29;20489;-65
2021/06/07 01:34:34;;;;;;;29.73;24.20;;;;;;;;;;2041017;29;20278;-65
2021/06/07 01:35:35;;;;;;;29.00;24.13;;;;;;;;;;2040984;29;20591;-64
2021/06/07 01:36:35;;;;;;;33.13;24.63;;;;;;;;;;2041125;29;20183;-64
2021/06/07 01:37:36;;;;;;;29.08;23.65;;;;;;;;;;2041033;29;20233;-62
2021/06/07 01:38:36;;;;;;;27.05;24.13;;;;;;;;;;2048452;29;20247;-63
2021/06/07 01:39:36;;;;;;;26.25;23.27;;;;;;;;;;2040385;29;20545;-65
2021/06/07 01:40:57;;;;;;;28.02;23.42;;;;;;;;;;2040264;29;20223;-65
2021/06/07 01:41:57;;;;;;;29.83;23.27;;;;;;;;;;2047601;29;20207;-65
2021/06/07 01:42:58;;;;;;;29.83;23.25;;;;;;;;;;2048412;29;20571;-65
2021/06/07 01:43:58;;;;;;;31.92;25.35;;;;;;;;;;2040756;29;20267;-65
2021/06/07 01:44:59;;;;;;;26.35;22.98;;;;;;;;;;2040254;29;20234;-63
2021/06/07 01:46:00;;;;;;;28.30;23.67;;;;;;;;;;2039856;29;20182;-65
2021/06/07 01:47:00;;;;;;;31.80;24.55;;;;;;;;;;2040367;29;20179;-64
2021/06/07 01:48:03;;;;;;;30.88;23.45;;;;;;;;;;2040057;29;20168;-63
2021/06/07 01:49:03;;;;;;;28.20;24.00;;;;;;;;;;2031481;29;20617;-62
2021/06/07 01:50:05;;;;;;;29.77;24.23;;;;;;;;;;2031208;29;20264;-63
2021/06/07 01:51:07;;;;;;;26.90;23.77;;;;;;;;;;2033621;29;20724;-65
2021/06/07 01:52:08;;;;;;;30.73;23.75;;;;;;;;;;2039391;29;20203;-65
2021/06/07 01:53:09;;;;;;;32.30;23.98;;;;;;;;;;2039965;29;20296;-63
2021/06/07 01:54:09;;;;;;;27.75;24.40;;;;;;;;;;2029448;29;20233;-63
2021/06/07 01:55:20;;;;;;;26.98;22.95;;;;;;;;;;2024619;29;20658;-64
2021/06/07 01:56:21;;;;;;;28.10;24.33;;;;;;;;;;2037383;29;20184;-65
2021/06/07 01:57:21;;;;;;;30.45;26.88;;;;;;;;;;2040668;29;20497;-65
2021/06/07 01:58:22;;;;;;;31.27;24.95;;;;;;;;;;2040008;29;20190;-65
2021/06/07 01:59:22;;;;;;;31.90;24.65;;;;;;;;;;2039657;29;20182;-64
2021/06/07 02:00:23;;;;;;;32.88;23.83;;;;;;;;;;2040603;29;20191;-63
2021/06/07 02:01:23;;;;;;;26.02;22.83;;;;;;;;;;2040778;29;20620;-64
2021/06/07 02:02:23;;;;;;;25.38;22.67;;;;;;;;;;2038945;29;20210;-64
2021/06/07 02:03:24;;;;;;;29.55;23.98;;;;;;;;;;2039261;29;20521;-59
2021/06/07 02:04:24;;;;;;;26.88;22.77;;;;;;;;;;2038747;29;20615;-64
2021/06/07 02:05:26;;;;;;;27.08;23.75;;;;;;;;;;2040438;29;20570;-63
2021/06/07 02:06:27;;;;;;;25.65;22.58;;;;;;;;;;2040377;29;20180;-64
2021/06/07 02:07:27;;;;;;;27.73;23.25;;;;;;;;;;2032152;29;20219;-63
2021/06/07 02:08:30;;;;;;;26.80;22.75;;;;;;;;;;2028608;29;20577;-62
2021/06/07 02:09:30;;;;;;;27.75;23.65;;;;;;;;;;2039329;29;20188;-65
2021/06/07 02:10:34;;;;;;;34.63;24.98;;;;;;;;;;2035824;29;20169;-62
2021/06/07 02:11:34;;;;;;;26.02;23.13;;;;;;;;;;2037282;29;20263;-65
2021/06/07 02:12:34;;;;;;;27.85;23.85;;;;;;;;;;2040449;29;20223;-65
2021/06/07 02:13:35;;;;;;;28.48;24.52;;;;;;;;;;2040761;29;20575;-65
2021/06/07 02:14:35;;;;;;;28.83;24.42;;;;;;;;;;2042536;29;20178;-64
2021/06/07 02:15:36;;;;;;;29.48;24.30;;;;;;;;;;2041854;29;20175;-64
2021/06/07 02:16:37;;;;;;;27.70;23.50;;;;;;;;;;2042976;29;20211;-66
2021/06/07 02:17:38;;;;;;;31.17;24.25;;;;;;;;;;2042446;29;20250;-64
2021/06/07 02:18:39;;;;;;;28.85;24.00;;;;;;;;;;2039795;29;20195;-64
2021/06/07 02:19:39;;;;;;;26.90;22.98;;;;;;;;;;2041057;29;20662;-65
2021/06/07 02:20:39;;;;;;;27.33;22.13;;;;;;;;;;2041777;29;20658;-64
2021/06/07 02:21:39;;;;;;;27.45;22.48;;;;;;;;;;2040746;29;20207;-64
2021/06/07 02:22:40;;;;;;;26.63;23.55;;;;;;;;;;2040817;29;20191;-64
2021/06/07 02:23:41;;;;;;;29.42;24.15;;;;;;;;;;2041571;29;20535;-64
2021/06/07 02:24:41;;;;;;;25.27;21.80;;;;;;;;;;2042354;29;20190;-64
2021/06/07 02:25:41;;;;;;;27.90;23.70;;;;;;;;;;2041662;29;20186;-64
2021/06/07 02:26:42;;;;;;;33.97;24.63;;;;;;;;;;2041701;29;20184;-65
2021/06/07 02:27:42;;;;;;;31.30;24.92;;;;;;;;;;2041134;29;20227;-65
2021/06/07 02:28:47;;;;;;;35.13;24.90;;;;;;;;;;2041472;29;20704;-64
2021/06/07 02:29:47;;;;;;;27.60;24.63;;;;;;;;;;2040358;29;20180;-66
2021/06/07 02:30:47;;;;;;;28.33;23.75;;;;;;;;;;2040348;29;20175;-65
2021/06/07 02:31:48;;;;;;;29.08;24.25;;;;;;;;;;2041525;29;20246;-64
2021/06/07 02:32:49;;;;;;;28.67;23.80;;;;;;;;;;2042156;29;20184;-64
2021/06/07 02:33:50;;;;;;;29.73;24.77;;;;;;;;;;2041214;29;20271;-64
2021/06/07 02:34:50;;;;;;;28.08;24.27;;;;;;;;;;2041979;29;20206;-65
2021/06/07 02:35:51;;;;;;;27.42;22.30;;;;;;;;;;2041233;29;20176;-65
2021/06/07 02:36:51;;;;;;;30.67;24.67;;;;;;;;;;2041386;29;20483;-65
2021/06/07 02:37:52;;;;;;;28.75;23.25;;;;;;;;;;2041966;29;20184;-65
2021/06/07 02:38:53;;;;;;;26.92;22.98;;;;;;;;;;2041851;29;20187;-64
2021/06/07 02:39:54;;;;;;;29.58;24.05;;;;;;;;;;2049344;29;20631;-64
2021/06/07 02:40:54;;;;;;;31.23;22.88;;;;;;;;;;2039786;29;20251;-65
2021/06/07 02:41:54;;;;;;;26.40;22.95;;;;;;;;;;2040762;29;20202;-64
2021/06/07 02:42:55;;;;;;;28.10;23.20;;;;;;;;;;2041662;29;20609;-63
2021/06/07 02:43:56;;;;;;;27.30;23.08;;;;;;;;;;2048885;29;20175;-64
2021/06/07 02:44:56;;;;;;;30.60;24.42;;;;;;;;;;2040757;29;20231;-64
2021/06/07 02:45:57;;;;;;;28.30;23.33;;;;;;;;;;2040626;29;20184;-65
2021/06/07 02:46:57;;;;;;;26.63;22.60;;;;;;;;;;2048890;29;20197;-65
2021/06/07 02:47:58;;;;;;;29.05;22.85;;;;;;;;;;2048435;29;20278;-63
2021/06/07 02:48:58;;;;;;;27.63;22.98;;;;;;;;;;2049164;29;20464;-65
2021/06/07 02:49:59;;;;;;;29.05;24.05;;;;;;;;;;2041961;29;20194;-65
2021/06/07 02:50:59;;;;;;;27.83;23.00;;;;;;;;;;2041818;29;20168;-66
2021/06/07 02:51:59;;;;;;;26.75;22.85;;;;;;;;;;2040530;29;20234;-65
2021/06/07 02:53:00;;;;;;;25.63;23.02;;;;;;;;;;2041270;29;20168;-65
2021/06/07 02:54:00;;;;;;;26.35;21.73;;;;;;;;;;2034985;29;20179;-65
2021/06/07 02:55:00;;;;;;;28.13;22.35;;;;;;;;;;2041190;29;20172;-64
2021/06/07 02:56:01;;;;;;;25.55;21.45;;;;;;;;;;2040982;29;20168;-66
2021/06/07 02:57:02;;;;;;;25.58;22.05;;;;;;;;;;2041549;29;20176;-65
2021/06/07 02:58:03;;;;;;;25.02;21.80;;;;;;;;;;2040556;29;20178;-66
2021/06/07 02:59:04;;;;;;;29.20;23.20;;;;;;;;;;2032690;29;20192;-63
2021/06/07 03:00:04;;;;;;;25.35;21.95;;;;;;;;;;2032021;29;20181;-65
2021/06/07 03:01:06;;;;;;;24.73;22.15;;;;;;;;;;2040361;29;20714;-64
2021/06/07 03:02:06;;;;;;;25.88;22.88;;;;;;;;;;2041004;29;20564;-64
2021/06/07 03:03:07;;;;;;;24.80;22.02;;;;;;;;;;2041159;29;20200;-62
2021/06/07 03:04:07;;;;;;;27.20;22.08;;;;;;;;;;2040988;29;20175;-66
2021/06/07 03:05:08;;;;;;;30.85;24.17;;;;;;;;;;2041486;29;20178;-64
2021/06/07 03:06:08;;;;;;;27.45;23.83;;;;;;;;;;2040598;29;20172;-63
2021/06/07 03:07:09;;;;;;;26.33;22.17;;;;;;;;;;2040584;29;20591;-65
2021/06/07 03:08:11;;;;;;;28.13;23.23;;;;;;;;;;2041269;29;20168;-64
2021/06/07 03:09:11;;;;;;;27.30;23.13;;;;;;;;;;2033422;29;20184;-65
2021/06/07 03:10:12;;;;;;;28.30;23.85;;;;;;;;;;2040429;29;20180;-67
2021/06/07 03:11:12;;;;;;;26.40;22.20;;;;;;;;;;2042891;29;20179;-64
2021/06/07 03:12:13;;;;;;;24.52;21.35;;;;;;;;;;2041889;29;20258;-65
2021/06/07 03:13:13;;;;;;;26.23;23.45;;;;;;;;;;2040199;29;20168;-64
2021/06/07 03:14:13;;;;;;;28.00;23.70;;;;;;;;;;2031829;29;20239;-64
2021/06/07 03:15:15;;;;;;;27.35;23.77;;;;;;;;;;2040540;29;20186;-63
2021/06/07 03:16:15;;;;;;;28.15;22.88;;;;;;;;;;2036127;29;20172;-63
2021/06/07 03:17:15;;;;;;;25.13;22.15;;;;;;;;;;2040367;29;20206;-64
2021/06/07 03:18:16;;;;;;;27.88;23.90;;;;;;;;;;2035304;29;20307;-64
2021/06/07 03:19:16;;;;;;;28.30;23.42;;;;;;;;;;2040803;29;20175;-63
2021/06/07 03:20:19;;;;;;;30.65;24.08;;;;;;;;;;2040172;29;20638;-65
2021/06/07 03:21:19;;;;;;;30.27;23.08;;;;;;;;;;2032559;29;20223;-63
2021/06/07 03:22:21;;;;;;;27.55;23.58;;;;;;;;;;2041023;29;20242;-62
2021/06/07 03:23:23;;;;;;;25.58;22.85;;;;;;;;;;2040674;29;20182;-61
2021/06/07 03:24:24;;;;;;;27.48;23.60;;;;;;;;;;2041150;29;20259;-62
2021/06/07 03:25:24;;;;;;;27.05;23.70;;;;;;;;;;2040636;29;20171;-64
2021/06/07 03:26:25;;;;;;;29.85;24.70;;;;;;;;;;2040669;29;20742;-65
2021/06/07 03:27:25;;;;;;;27.00;23.10;;;;;;;;;;2041458;29;20184;-64
2021/06/07 03:28:26;;;;;;;28.33;24.50;;;;;;;;;;2040583;29;20175;-64
2021/06/07 03:29:26;;;;;;;28.05;24.25;;;;;;;;;;2030570;29;20207;-62
2021/06/07 03:30:27;;;;;;;30.45;23.95;;;;;;;;;;2036785;29;20192;-64
2021/06/07 03:31:27;;;;;;;27.80;24.83;;;;;;;;;;2040827;29;20187;-64
2021/06/07 03:32:27;;;;;;;29.15;24.20;;;;;;;;;;2040490;29;20207;-66
2021/06/07 03:33:28;;;;;;;27.15;24.05;;;;;;;;;;2039998;29;20668;-65
2021/06/07 03:34:28;;;;;;;26.05;23.35;;;;;;;;;;2037201;29;20239;-65
2021/06/07 03:35:28;;;;;;;27.15;23.73;;;;;;;;;;2041229;29;20311;-64
2021/06/07 03:36:30;;;;;;;28.25;24.83;;;;;;;;;;2040785;29;20190;-65
2021/06/07 03:37:30;;;;;;;27.08;24.08;;;;;;;;;;2041386;29;20183;-64
2021/06/07 03:38:31;;;;;;;30.33;25.13;;;;;;;;;;2040864;29;20652;-62
2021/06/07 03:39:32;;;;;;;28.35;25.00;;;;;;;;;;2035813;29;20212;-66
2021/06/07 03:40:34;;;;;;;30.38;24.30;;;;;;;;;;2036851;29;20574;-65
2021/06/07 03:41:34;;;;;;;32.20;25.30;;;;;;;;;;2041033;29;20191;-66
2021/06/07 03:42:34;;;;;;;28.92;24.85;;;;;;;;;;2041419;29;20275;-65
2021/06/07 03:43:36;;;;;;;28.08;23.35;;;;;;;;;;2040874;29;20199;-63
2021/06/07 03:44:37;;;;;;;29.35;24.30;;;;;;;;;;2041298;29;20172;-64
2021/06/07 03:45:37;;;;;;;29.38;24.73;;;;;;;;;;2048975;29;20265;-64
2021/06/07 03:46:38;;;;;;;30.45;25.90;;;;;;;;;;2048969;29;20183;-64
2021/06/07 03:47:39;;;;;;;28.33;23.95;;;;;;;;;;2041505;29;20303;-65
2021/06/07 03:48:39;;;;;;;32.38;25.58;;;;;;;;;;2041526;29;20612;-65
2021/06/07 03:49:39;;;;;;;28.42;25.35;;;;;;;;;;2041759;29;20167;-64
2021/06/07 03:50:40;;;;;;;31.17;26.17;;;;;;;;;;2043810;29;20183;-65
2021/06/07 03:51:40;;;;;;;34.30;24.15;;;;;;;;;;2041131;29;20601;-64
2021/06/07 03:52:41;;;;;;;31.38;25.85;;;;;;;;;;2041347;29;20175;-64
2021/06/07 03:53:42;;;;;;;30.10;25.52;;;;;;;;;;2041229;29;20175;-64
2021/06/07 03:54:42;;;;;;;28.67;25.17;;;;;;;;;;2048850;29;20579;-64
2021/06/07 03:55:42;;;;;;;32.67;25.88;;;;;;;;;;2048991;29;20210;-64
2021/06/07 03:56:43;;;;;;;30.75;25.02;;;;;;;;;;2040772;29;20601;-64
2021/06/07 03:57:43;;;;;;;30.20;23.33;;;;;;;;;;2041161;29;20239;-64
2021/06/07 03:58:43;;;;;;;30.17;24.35;;;;;;;;;;2041323;29;20259;-65
2021/06/07 03:59:44;;;;;;;30.65;26.33;;;;;;;;;;2041454;29;20188;-64
2021/06/07 04:00:44;;;;;;;32.35;25.23;;;;;;;;;;2040380;29;20192;-64
2021/06/07 04:01:44;;;;;;;29.90;24.08;;;;;;;;;;2040834;29;20275;-64
2021/06/07 04:02:45;;;;;;;27.35;23.95;;;;;;;;;;2039592;29;20286;-62
2021/06/07 04:03:45;;;;;;;32.00;24.98;;;;;;;;;;2040465;29;20179;-64
2021/06/07 04:04:45;;;;;;;32.28;25.80;;;;;;;;;;2039504;29;20199;-63
2021/06/07 04:05:45;;;;;;;29.23;24.30;;;;;;;;;;2040592;29;20210;-63
2021/06/07 04:06:46;;;;;;;28.15;24.52;;;;;;;;;;2041351;29;20186;-64
2021/06/07 04:07:46;;;;;;;28.05;23.85;;;;;;;;;;2040657;29;20175;-63
2021/06/07 04:08:47;;;;;;;27.00;24.15;;;;;;;;;;2041094;29;20201;-63
2021/06/07 04:09:47;;;;;;;31.55;25.80;;;;;;;;;;2040405;29;20202;-65
2021/06/07 04:10:48;;;;;;;29.52;26.00;;;;;;;;;;2048633;29;20198;-64
2021/06/07 04:11:51;;;;;;;29.90;23.83;;;;;;;;;;2033114;29;20196;-64
2021/06/07 04:12:52;;;;;;;27.65;23.00;;;;;;;;;;2035820;29;20224;-64
2021/06/07 04:13:52;;;;;;;30.55;24.48;;;;;;;;;;2040227;29;20219;-65
2021/06/07 04:14:52;;;;;;;28.10;25.10;;;;;;;;;;2040416;29;20179;-64
2021/06/07 04:15:53;;;;;;;29.27;23.73;;;;;;;;;;2040812;29;20213;-63
2021/06/07 04:16:53;;;;;;;27.25;24.05;;;;;;;;;;2048606;29;20714;-63
2021/06/07 04:17:54;;;;;;;25.58;22.80;;;;;;;;;;2047975;29;20603;-64
2021/06/07 04:18:54;;;;;;;26.67;23.77;;;;;;;;;;2040932;29;20644;-64
2021/06/07 04:19:54;;;;;;;30.77;23.58;;;;;;;;;;2040415;29;20552;-64
2021/06/07 04:20:55;;;;;;;26.85;22.67;;;;;;;;;;2040656;29;20188;-64
2021/06/07 04:21:55;;;;;;;27.58;23.27;;;;;;;;;;2040699;29;20290;-64
2021/06/07 04:22:56;;;;;;;30.33;24.08;;;;;;;;;;2040681;29;20203;-62
2021/06/07 04:23:56;;;;;;;28.13;23.52;;;;;;;;;;2039859;29;20207;-62
2021/06/07 04:24:56;;;;;;;28.77;24.35;;;;;;;;;;2032726;29;20623;-65
2021/06/07 04:25:56;;;;;;;31.65;24.13;;;;;;;;;;2047619;29;20187;-65
2021/06/07 04:26:57;;;;;;;29.15;25.17;;;;;;;;;;2040844;29;20195;-63
2021/06/07 04:27:58;;;;;;;29.02;24.70;;;;;;;;;;2040307;29;20182;-65
2021/06/07 04:28:58;;;;;;;26.38;22.45;;;;;;;;;;2040060;29;20204;-66
2021/06/07 04:29:59;;;;;;;27.55;24.38;;;;;;;;;;2039733;29;20627;-66
2021/06/07 04:31:00;;;;;;;26.38;23.20;;;;;;;;;;2040506;29;20171;-65
2021/06/07 04:32:00;;;;;;;25.45;22.75;;;;;;;;;;2034912;29;20203;-64
2021/06/07 04:33:01;;;;;;;26.38;22.40;;;;;;;;;;2039702;29;20178;-65
2021/06/07 04:34:01;;;;;;;25.83;22.83;;;;;;;;;;2039718;29;20187;-67
2021/06/07 04:35:02;;;;;;;27.65;22.83;;;;;;;;;;2040325;29;20288;-64
2021/06/07 04:36:02;;;;;;;26.17;23.38;;;;;;;;;;2039601;29;20194;-65
2021/06/07 04:37:06;;;;;;;27.30;24.40;;;;;;;;;;2039355;29;20294;-65
2021/06/07 04:38:06;;;;;;;27.90;24.25;;;;;;;;;;2040679;29;20767;-63
2021/06/07 04:39:07;;;;;;;27.63;24.63;;;;;;;;;;2040603;29;20174;-66
2021/06/07 04:40:07;;;;;;;25.85;22.77;;;;;;;;;;2039951;29;20184;-66
2021/06/07 04:41:08;;;;;;;26.70;23.42;;;;;;;;;;2039512;29;20203;-66
2021/06/07 04:42:08;;;;;;;29.35;24.83;;;;;;;;;;2040222;29;20187;-66
2021/06/07 04:43:10;;;;;;;33.90;25.55;;;;;;;;;;2040704;29;20196;-64
2021/06/07 04:44:10;;;;;;;31.15;25.50;;;;;;;;;;2040811;29;20637;-65
2021/06/07 04:45:11;;;;;;;30.73;26.73;;;;;;;;;;2039803;29;20231;-64
2021/06/07 04:46:11;;;;;;;30.17;25.58;;;;;;;;;;2040375;29;20160;-67
2021/06/07 04:47:12;;;;;;;29.48;25.85;;;;;;;;;;2040606;29;20191;-66
2021/06/07 04:48:12;;;;;;;33.00;26.92;;;;;;;;;;2039762;29;20320;-65
2021/06/07 04:49:13;;;;;;;30.63;25.33;;;;;;;;;;2038374;29;20640;-66
2021/06/07 04:50:14;;;;;;;36.40;27.38;;;;;;;;;;2039943;29;20570;-63
2021/06/07 04:51:14;;;;;;;33.10;26.00;;;;;;;;;;2026735;29;20170;-66
2021/06/07 04:52:14;;;;;;;30.63;25.55;;;;;;;;;;2039988;29;20580;-66
2021/06/07 04:53:14;;;;;;;34.17;27.17;;;;;;;;;;2041049;29;20176;-66
2021/06/07 04:54:15;;;;;;;33.60;26.48;;;;;;;;;;2040572;29;20167;-66
2021/06/07 04:55:15;;;;;;;38.75;27.77;;;;;;;;;;2040331;29;20195;-66
2021/06/07 04:56:15;;;;;;;37.05;28.77;;;;;;;;;;2039575;29;20187;-65
2021/06/07 04:57:16;;;;;;;31.70;26.50;;;;;;;;;;2032289;29;20192;-66
2021/06/07 04:58:17;;;;;;;36.58;28.13;;;;;;;;;;2039887;29;20180;-66
2021/06/07 04:59:17;;;;;;;37.75;27.23;;;;;;;;;;2040929;29;20274;-67
2021/06/07 05:00:18;;;;;;;36.17;28.48;;;;;;;;;;2041213;29;20171;-66
2021/06/07 05:01:19;;;;;;;37.95;28.73;;;;;;;;;;2041125;29;20171;-66
2021/06/07 05:02:19;;;;;;;37.05;29.20;;;;;;;;;;2051266;23;20541;-59
2021/06/07 05:03:19;;;;;;;36.78;28.58;;;;;;;;;;2042248;29;20217;-61
2021/06/07 05:04:20;;;;;;;34.90;29.05;;;;;;;;;;2040679;29;20259;-55
2021/06/07 05:05:20;;;;;;;38.63;31.02;;;;;;;;;;2040947;29;20170;-58
2021/06/07 05:06:21;;;;;;;41.95;30.15;;;;;;;;;;2040103;29;20176;-59
2021/06/07 05:07:21;;;;;;;43.35;31.52;;;;;;;;;;2051427;28;20652;-58
2021/06/07 05:08:22;;;;;;;43.55;30.40;;;;;;;;;;2052663;28;20254;-60
2021/06/07 05:09:22;;;;;;;39.65;30.55;;;;;;;;;;2047326;28;20275;-57
2021/06/07 05:10:23;;;;;;;42.70;31.80;;;;;;;;;;2042017;29;20313;-58
2021/06/07 05:11:23;;;;;;;41.42;31.90;;;;;;;;;;2039443;29;20719;-59
2021/06/07 05:12:23;;;;;;;40.92;31.50;;;;;;;;;;2037880;29;20199;-55
2021/06/07 05:13:24;;;;;;;44.80;31.65;;;;;;;;;;2037142;29;20175;-58
2021/06/07 05:14:25;;;;;;;42.30;31.58;;;;;;;;;;2040937;29;20179;-59
2021/06/07 05:15:25;;;;;;;35.20;29.63;;;;;;;;;;2040868;29;20186;-58
2021/06/07 05:16:25;;;;;;;36.55;29.40;;;;;;;;;;2040355;29;20231;-60
2021/06/07 05:17:26;;;;;;;41.70;29.33;;;;;;;;;;2040564;29;20187;-59
2021/06/07 05:18:26;;;;;;;35.00;29.45;;;;;;;;;;2034357;29;20176;-58
2021/06/07 05:19:26;;;;;;;41.75;29.85;;;;;;;;;;2036133;29;20180;-62
2021/06/07 05:20:27;;;;;;;39.20;28.15;;;;;;;;;;2036794;29;20237;-58
2021/06/07 05:21:28;;;;;;;37.72;28.75;;;;;;;;;;2031743;29;20180;-54
2021/06/07 05:22:28;;;;;;;33.83;28.52;;;;;;;;;;2040502;29;20220;-53
2021/06/07 05:23:28;;;;;;;38.92;28.90;;;;;;;;;;2039346;29;20176;-54
2021/06/07 05:24:28;;;;;;;36.22;27.13;;;;;;;;;;2040894;29;20651;-57
2021/06/07 05:25:29;;;;;;;36.97;27.77;;;;;;;;;;2040051;29;20195;-59
2021/06/07 05:26:30;;;;;;;36.53;27.67;;;;;;;;;;2037236;29;20836;-58
2021/06/07 05:27:30;;;;;;;30.63;25.38;;;;;;;;;;2039267;29;20176;-60
2021/06/07 05:28:30;;;;;;;27.92;24.52;;;;;;;;;;2037175;29;20191;-59
2021/06/07 05:29:32;;;;;;;32.85;25.08;;;;;;;;;;2038505;29;20211;-57
2021/06/07 05:30:33;;;;;;;34.28;25.60;;;;;;;;;;2038241;29;20605;-56
2021/06/07 05:31:34;;;;;;;32.13;25.95;;;;;;;;;;2039476;29;20183;-56
2021/06/07 05:32:34;;;;;;;31.95;25.33;;;;;;;;;;2038033;29;20226;-57
2021/06/07 05:33:34;;;;;;;32.13;26.38;;;;;;;;;;2031301;29;20180;-56
2021/06/07 05:34:35;;;;;;;32.83;25.17;;;;;;;;;;2039333;29;20639;-59
2021/06/07 05:35:40;;;;;;;27.35;23.67;;;;;;;;;;2039065;29;20274;-58
2021/06/07 05:36:40;;;;;;;30.00;24.05;;;;;;;;;;2037244;29;20187;-56
2021/06/07 05:37:41;;;;;;;30.80;25.58;;;;;;;;;;2036965;29;20240;-55
2021/06/07 05:38:41;;;;;;;30.35;24.90;;;;;;;;;;2035765;29;20195;-59
2021/06/07 05:39:41;;;;;;;30.50;23.60;;;;;;;;;;2040647;29;20251;-56
2021/06/07 05:40:43;;;;;;;28.40;24.95;;;;;;;;;;2046235;29;20175;-54
2021/06/07 05:41:43;;;;;;;26.80;24.10;;;;;;;;;;2036957;28;20176;-57
2021/06/07 05:42:44;;;;;;;29.35;23.92;;;;;;;;;;2044736;29;20203;-56
2021/06/07 05:43:45;;;;;;;28.27;23.95;;;;;;;;;;2041672;28;20235;-56
2021/06/07 05:44:45;;;;;;;29.80;24.60;;;;;;;;;;2040568;29;20180;-53
2021/06/07 05:45:45;;;;;;;27.45;22.75;;;;;;;;;;2038988;29;20203;-56
2021/06/07 05:46:47;;;;;;;26.83;21.90;;;;;;;;;;2039463;29;20663;-53
2021/06/07 05:47:49;;;;;;;27.65;22.42;;;;;;;;;;2040254;29;20191;-56
2021/06/07 05:48:49;;;;;;;24.05;21.45;;;;;;;;;;2040566;29;20242;-50
2021/06/07 05:49:49;;;;;;;25.98;21.40;;;;;;;;;;2041573;29;20179;-58
2021/06/07 05:50:50;;;;;;;26.65;21.73;;;;;;;;;;2041538;29;20203;-57
2021/06/07 05:51:50;;;;;;;23.48;20.98;;;;;;;;;;2040570;29;20316;-56
2021/06/07 05:52:51;;;;;;;23.50;20.90;;;;;;;;;;2041532;29;20183;-54